Time;durP1;ratioP1;P1;durP2;ratioP2;P2;SDS_P1;SDS_P2;PMS_P1;PMS_P2;Temp;Humidity;BMP_temperature;BMP_pressure;BME280_temperature;BME280_humidity;BME280_pressure;Samples;Min_cycle;Max_cycle;Signal;HPM_P1;HPM_P2
2022/03/19 00:01:20;;;;;;;165.10;65.10;;;;;;;-3.28;49.13;101082.04;107437;1285;22619;-73
2022/03/19 00:03:47;;;;;;;164.70;65.70;;;;;;;-3.29;49.17;101082.14;107510;1285;22707;-78
2022/03/19 00:06:14;;;;;;;169.60;64.10;;;;;;;-3.33;49.21;101077.47;107523;1285;23139;-75
2022/03/19 00:08:42;;;;;;;183.10;66.50;;;;;;;-3.35;49.47;101075.86;107496;1285;25266;-73
2022/03/19 00:11:09;;;;;;;192.50;69.90;;;;;;;-3.39;49.53;101074.55;107177;1284;22541;-75
2022/03/19 00:13:36;;;;;;;146.80;57.60;;;;;;;-3.44;50.14;101069.30;107478;1285;22547;-74
2022/03/19 00:16:05;;;;;;;125.70;49.40;;;;;;;-3.48;50.44;101071.23;107510;1284;22657;-73
2022/03/19 00:18:32;;;;;;;181.60;68.80;;;;;;;-3.50;50.16;101071.16;107529;1285;22556;-73
2022/03/19 00:20:59;;;;;;;181.50;70.30;;;;;;;-3.52;49.85;101070.58;107480;1285;22591;-73
2022/03/19 00:23:26;;;;;;;179.20;67.70;;;;;;;-3.55;49.87;101068.10;107515;1285;22572;-75
2022/03/19 00:25:53;;;;;;;159.20;62.10;;;;;;;-3.57;50.71;101071.27;107488;1285;22719;-74
2022/03/19 00:28:20;;;;;;;258.10;98.30;;;;;;;-3.58;50.17;101067.50;107511;1285;22567;-73
2022/03/19 00:30:47;;;;;;;227.40;87.10;;;;;;;-3.58;50.08;101069.20;107522;1285;22713;-74
2022/03/19 00:33:14;;;;;;;247.70;93.20;;;;;;;-3.59;50.30;101066.99;107495;1285;22575;-73
2022/03/19 00:35:41;;;;;;;278.00;103.40;;;;;;;-3.60;50.06;101064.40;107172;1285;22834;-76
2022/03/19 00:38:08;;;;;;;226.80;86.50;;;;;;;-3.63;50.41;101059.70;107472;1285;22563;-74
2022/03/19 00:40:35;;;;;;;228.50;85.50;;;;;;;-3.64;50.73;101059.13;107486;1285;22577;-76
2022/03/19 00:43:02;;;;;;;216.90;81.90;;;;;;;-3.66;50.57;101056.86;107508;1285;22566;-74
2022/03/19 00:45:30;;;;;;;140.60;56.30;;;;;;;-3.68;50.79;101059.89;107486;1285;22724;-78
2022/03/19 00:47:57;;;;;;;190.90;74.20;;;;;;;-3.70;51.76;101055.04;107490;1285;22695;-74
2022/03/19 00:50:25;;;;;;;209.30;76.50;;;;;;;-3.72;50.81;101048.16;107494;1285;22691;-74
2022/03/19 00:52:52;;;;;;;165.00;63.80;;;;;;;-3.75;51.85;101043.13;107496;1285;24304;-73
2022/03/19 00:55:19;;;;;;;208.40;76.60;;;;;;;-3.78;50.87;101041.52;107527;1285;22578;-73
2022/03/19 00:57:47;;;;;;;198.20;73.40;;;;;;;-3.82;50.60;101040.36;107472;1285;22715;-73
2022/03/19 01:00:23;;;;;;;162.70;64.20;;;;;;;-3.86;50.99;101040.42;107534;1285;24273;-74
2022/03/19 01:02:51;;;;;;;158.50;56.70;;;;;;;-3.89;50.79;101040.48;107479;1285;22731;-73
2022/03/19 01:05:19;;;;;;;165.30;64.00;;;;;;;-3.92;50.93;101045.67;107496;1283;22584;-73
2022/03/19 01:07:48;;;;;;;141.30;55.70;;;;;;;-3.94;51.11;101044.08;107529;1285;25522;-73
2022/03/19 01:10:20;;;;;;;175.30;64.80;;;;;;;-3.95;50.96;101042.52;107497;1285;22640;-79
2022/03/19 01:12:49;;;;;;;170.10;62.10;;;;;;;-3.98;50.97;101042.27;107455;1285;22617;-73
2022/03/19 01:15:18;;;;;;;165.30;61.10;;;;;;;-4.01;51.30;101042.33;107482;1285;22626;-75
2022/03/19 01:17:45;;;;;;;175.90;63.90;;;;;;;-4.04;51.29;101045.48;107488;1285;24338;-73
2022/03/19 01:20:14;;;;;;;187.70;72.90;;;;;;;-4.08;51.44;101041.60;107508;1285;23151;-73
2022/03/19 01:22:42;;;;;;;176.30;65.90;;;;;;;-4.08;51.35;101044.13;107518;1285;24548;-73
2022/03/19 01:25:11;;;;;;;154.80;58.50;;;;;;;-4.11;51.18;101041.14;107504;1285;22562;-73
2022/03/19 01:27:40;;;;;;;130.90;50.50;;;;;;;-4.13;52.22;101043.30;107503;1285;22748;-73
2022/03/19 01:30:08;;;;;;;164.40;59.40;;;;;;;-4.16;52.45;101046.79;107508;1285;22554;-74
2022/03/19 01:32:35;;;;;;;127.10;49.50;;;;;;;-4.19;52.31;101041.92;107509;1285;22568;-73
2022/03/19 01:35:03;;;;;;;179.00;65.70;;;;;;;-4.22;51.78;101041.00;107522;1284;24974;-73
2022/03/19 01:37:30;;;;;;;182.60;70.40;;;;;;;-4.25;51.92;101043.27;107480;1284;24335;-73
2022/03/19 01:39:57;;;;;;;191.00;72.70;;;;;;;-4.25;52.09;101040.35;107521;1285;22547;-74
2022/03/19 01:42:26;;;;;;;169.20;66.80;;;;;;;-4.23;53.15;101034.47;107580;1285;22551;-73
2022/03/19 01:44:54;;;;;;;160.90;61.80;;;;;;;-4.22;54.73;101040.13;107249;1285;368853;-73
2022/03/19 01:47:23;;;;;;;165.10;62.50;;;;;;;-4.24;55.30;101037.16;107484;1285;22566;-72
2022/03/19 01:49:50;;;;;;;164.80;63.00;;;;;;;-4.27;54.91;101032.46;107531;1285;22568;-73
2022/03/19 01:52:18;;;;;;;160.10;65.90;;;;;;;-4.30;54.50;101033.73;107602;1284;24239;-73
2022/03/19 01:54:48;;;;;;;159.50;65.60;;;;;;;-4.31;54.31;101030.64;107526;1284;22643;-73
2022/03/19 01:57:19;;;;;;;166.30;65.10;;;;;;;-4.32;54.02;101031.47;107535;1285;22613;-75
2022/03/19 01:59:48;;;;;;;177.20;69.30;;;;;;;-4.32;53.82;101029.41;107489;1284;22572;-73
2022/03/19 02:02:15;;;;;;;170.90;66.10;;;;;;;-4.33;53.59;101023.27;107893;1284;22678;-71
2022/03/19 02:04:42;;;;;;;156.10;60.80;;;;;;;-4.35;53.61;101019.27;107504;1284;24334;-71
2022/03/19 02:07:11;;;;;;;150.80;61.50;;;;;;;-4.39;53.55;101016.78;107494;1284;22733;-72
2022/03/19 02:09:40;;;;;;;158.10;59.60;;;;;;;-4.42;53.61;101011.90;107526;1284;22587;-76
2022/03/19 02:12:08;;;;;;;176.30;61.90;;;;;;;-4.43;53.68;101007.60;107961;1283;24481;-71
2022/03/19 02:14:37;;;;;;;150.50;59.40;;;;;;;-4.45;53.82;101010.59;107180;1285;24268;-75
2022/03/19 02:17:06;;;;;;;139.10;55.40;;;;;;;-4.46;53.92;101010.90;107472;1284;22712;-71
2022/03/19 02:19:34;;;;;;;134.00;55.80;;;;;;;-4.49;53.90;101012.88;107510;1284;23182;-70
2022/03/19 02:22:01;;;;;;;142.40;57.70;;;;;;;-4.51;53.82;101013.97;107539;1284;22596;-70
2022/03/19 02:27:15;;;;;;;137.90;55.80;;;;;;;-4.59;53.88;101018.17;107483;1284;22568;-71
2022/03/19 02:29:43;;;;;;;139.70;56.50;;;;;;;-4.62;53.72;101018.36;107467;1284;22563;-71
2022/03/19 02:32:09;;;;;;;182.50;70.60;;;;;;;-4.67;53.78;101020.59;107482;1284;22593;-75
2022/03/19 02:34:36;;;;;;;183.30;69.00;;;;;;;-4.70;53.84;101016.90;107442;1284;25350;-71
2022/03/19 02:37:03;;;;;;;234.60;86.60;;;;;;;-4.71;53.82;101015.67;107464;1284;22569;-70
2022/03/19 02:39:34;;;;;;;268.50;106.70;;;;;;;-4.72;54.01;101015.30;107454;1284;22554;-73
2022/03/19 02:42:04;;;;;;;202.40;75.80;;;;;;;-4.73;54.37;101014.44;107465;1284;22556;-70
2022/03/19 02:44:32;;;;;;;189.60;78.70;;;;;;;-4.69;54.49;101018.13;107462;1284;22635;-71
2022/03/19 02:47:02;;;;;;;211.00;82.00;;;;;;;-4.67;55.81;101016.52;107440;1284;22679;-71
2022/03/19 02:49:29;;;;;;;236.70;82.40;;;;;;;-4.67;57.15;101014.83;107460;1284;22586;-71
2022/03/19 02:51:56;;;;;;;213.90;77.20;;;;;;;-4.70;57.48;101010.48;107429;1284;22611;-71
2022/03/19 02:54:26;;;;;;;221.20;81.60;;;;;;;-4.72;57.58;101004.94;107818;1284;22635;-71
2022/03/19 02:56:54;;;;;;;192.40;76.10;;;;;;;-4.74;57.45;101003.01;107462;1284;22519;-77
2022/03/19 02:59:24;;;;;;;167.70;70.00;;;;;;;-4.76;57.14;101002.11;107438;1284;22595;-70
2022/03/19 03:01:54;;;;;;;172.40;66.40;;;;;;;-4.78;56.92;100997.62;107476;1285;22566;-82
2022/03/19 03:04:23;;;;;;;161.80;64.30;;;;;;;-4.79;56.95;100999.42;107720;1285;22641;-80
2022/03/19 03:06:55;;;;;;;171.40;66.30;;;;;;;-4.82;56.96;101002.58;107752;1284;23071;-75
2022/03/19 03:09:24;;;;;;;168.80;65.50;;;;;;;-4.83;56.77;101001.69;107734;1285;22627;-76
2022/03/19 03:11:52;;;;;;;159.10;64.00;;;;;;;-4.85;56.52;101000.77;107724;1284;22717;-81
2022/03/19 03:14:20;;;;;;;175.70;64.70;;;;;;;-4.88;56.38;101001.67;107744;1284;22620;-80
2022/03/19 03:16:49;;;;;;;169.20;64.70;;;;;;;-4.92;56.31;101001.71;107720;1285;22555;-71
2022/03/19 03:19:17;;;;;;;173.30;67.10;;;;;;;-4.96;56.55;101008.05;107702;1284;22573;-81
2022/03/19 03:21:45;;;;;;;167.90;64.40;;;;;;;-5.00;56.59;101007.89;107704;1285;22573;-73
2022/03/19 03:24:14;;;;;;;160.70;62.10;;;;;;;-5.04;56.50;101006.40;107719;1285;22658;-72
2022/03/19 03:26:42;;;;;;;166.20;63.00;;;;;;;-5.09;55.96;101008.59;107749;1285;22730;-73
2022/03/19 03:29:09;;;;;;;157.90;63.40;;;;;;;-5.12;56.05;101012.73;107748;1284;22551;-79
2022/03/19 03:31:37;;;;;;;140.70;60.00;;;;;;;-5.11;56.23;101016.52;107728;1285;22554;-72
2022/03/19 03:34:04;;;;;;;131.60;56.30;;;;;;;-5.08;57.30;101018.13;107480;1284;24264;-78
2022/03/19 03:36:32;;;;;;;136.70;52.40;;;;;;;-5.05;58.38;101017.74;107699;1284;22671;-82
2022/03/19 03:38:59;;;;;;;133.90;52.20;;;;;;;-5.06;58.74;101018.58;107732;1285;22564;-73
2022/03/19 03:41:25;;;;;;;145.30;55.30;;;;;;;-5.06;58.40;101019.73;107757;1285;22590;-72
2022/03/19 03:43:52;;;;;;;131.70;52.30;;;;;;;-5.08;57.91;101017.45;107507;1285;24261;-75
2022/03/19 03:46:19;;;;;;;138.60;51.70;;;;;;;-5.12;57.95;101015.97;107714;1285;22776;-80
2022/03/19 03:48:47;;;;;;;140.50;51.70;;;;;;;-5.17;58.01;101016.96;107734;1285;22543;-72
2022/03/19 03:51:14;;;;;;;131.80;53.00;;;;;;;-5.23;57.77;101014.39;107705;1285;22603;-76
2022/03/19 03:53:45;;;;;;;148.50;54.80;;;;;;;-5.30;57.88;101017.20;107697;1285;22626;-72
2022/03/19 03:56:12;;;;;;;141.80;55.20;;;;;;;-5.35;57.69;101016.00;107720;1285;22544;-72
2022/03/19 03:58:40;;;;;;;131.70;51.80;;;;;;;-5.40;57.51;101009.02;107450;1285;22673;-78
2022/03/19 04:01:08;;;;;;;147.30;52.60;;;;;;;-5.43;57.68;101011.96;107723;1285;25365;-72
2022/03/19 04:03:35;;;;;;;139.30;54.00;;;;;;;-5.46;57.62;101010.48;107731;1285;24512;-77
2022/03/19 04:06:03;;;;;;;147.00;56.90;;;;;;;-5.51;57.30;101009.78;107698;1285;22650;-72
2022/03/19 04:08:31;;;;;;;149.50;57.40;;;;;;;-5.57;57.40;101013.12;107722;1284;22548;-81
2022/03/19 04:10:58;;;;;;;146.80;55.40;;;;;;;-5.62;57.30;101016.64;107737;1285;22565;-71
2022/03/19 04:13:25;;;;;;;150.80;56.10;;;;;;;-5.66;57.07;101011.61;107477;1284;22558;-75
2022/03/19 04:15:53;;;;;;;145.20;61.60;;;;;;;-5.66;57.58;101008.39;107725;1285;25331;-72
2022/03/19 04:18:20;;;;;;;142.90;58.10;;;;;;;-5.63;59.19;101011.00;107482;1285;24449;-72
2022/03/19 04:20:47;;;;;;;132.30;50.60;;;;;;;-5.60;60.72;101012.66;107702;1285;22615;-73
2022/03/19 04:23:14;;;;;;;125.50;52.30;;;;;;;-5.61;60.93;101013.83;107706;1285;22548;-71
2022/03/19 04:25:42;;;;;;;123.80;51.30;;;;;;;-5.61;60.53;101013.29;107712;1284;22583;-78
2022/03/19 04:28:11;;;;;;;117.80;46.60;;;;;;;-5.61;60.40;101012.96;107705;1285;22702;-76
2022/03/19 04:30:40;;;;;;;124.20;48.90;;;;;;;-5.61;59.96;101010.61;107720;1284;24150;-72
2022/03/19 04:33:07;;;;;;;120.90;48.20;;;;;;;-5.61;59.62;101013.63;107713;1285;22590;-72
2022/03/19 04:38:23;;;;;;;133.00;49.70;;;;;;;-5.66;59.05;101015.00;107720;1285;22625;-73
2022/03/19 04:40:52;;;;;;;130.70;51.30;;;;;;;-5.68;59.01;101014.73;107696;1285;22568;-73
2022/03/19 04:43:20;;;;;;;117.30;48.60;;;;;;;-5.71;58.80;101015.14;107728;1285;22547;-77
2022/03/19 04:45:47;;;;;;;114.90;43.50;;;;;;;-5.73;58.83;101014.92;107710;1285;25102;-80
2022/03/19 04:48:14;;;;;;;116.10;44.80;;;;;;;-5.75;58.76;101017.06;107704;1285;23213;-71
2022/03/19 04:50:43;;;;;;;107.00;42.40;;;;;;;-5.75;58.55;101022.63;107683;1285;22568;-71
2022/03/19 04:53:11;;;;;;;106.00;42.00;;;;;;;-5.78;58.51;101018.80;107700;1285;22623;-75
2022/03/19 04:55:39;;;;;;;122.20;48.80;;;;;;;-5.80;59.44;101023.80;107708;1285;22541;-72
2022/03/19 04:58:07;;;;;;;130.30;51.20;;;;;;;-5.81;58.85;101024.60;107708;1285;22564;-71
2022/03/19 05:00:36;;;;;;;114.60;50.50;;;;;;;-5.81;59.29;101026.48;107748;1285;23953;-71
2022/03/19 05:03:05;;;;;;;200.80;85.40;;;;;;;-5.84;59.40;101029.10;107722;1285;22710;-78
2022/03/19 05:05:33;;;;;;;362.50;122.00;;;;;;;-5.85;59.34;101029.54;107660;1285;22619;-70
2022/03/19 05:08:00;;;;;;;390.20;137.10;;;;;;;-5.81;59.81;101033.59;107430;1285;22752;-75
2022/03/19 05:13:13;;;;;;;268.70;86.60;;;;;;;-5.70;61.95;101033.53;107436;1285;22624;-72
2022/03/19 05:15:40;;;;;;;232.10;71.00;;;;;;;-5.65;62.85;101032.02;107452;1285;22717;-71
2022/03/19 05:18:07;;;;;;;219.20;77.50;;;;;;;-5.62;62.87;101031.96;107257;1284;22751;-71
2022/03/19 05:20:35;;;;;;;171.10;67.70;;;;;;;-5.58;62.51;101032.95;107425;1284;22597;-71
2022/03/19 05:23:04;;;;;;;176.00;70.00;;;;;;;-5.53;62.29;101032.28;107486;1284;24142;-71
2022/03/19 05:25:31;;;;;;;178.00;66.00;;;;;;;-5.43;62.00;101031.16;107418;1284;22614;-73
2022/03/19 05:27:58;;;;;;;184.00;64.60;;;;;;;-5.27;61.77;101034.44;107475;1285;22653;-74
2022/03/19 05:30:25;;;;;;;180.10;63.30;;;;;;;-5.06;61.95;101032.14;107292;1285;24487;-73
2022/03/19 05:32:53;;;;;;;164.40;58.80;;;;;;;-4.79;61.98;101035.48;107405;1285;22573;-84
2022/03/19 05:35:22;;;;;;;159.60;54.90;;;;;;;-4.53;62.54;101033.47;107424;1284;22641;-79
2022/03/19 05:37:49;;;;;;;133.50;51.70;;;;;;;-4.27;62.71;101034.16;107443;1284;22770;-83
2022/03/19 05:40:17;;;;;;;126.60;52.10;;;;;;;-3.99;63.09;101036.77;107409;1284;25293;-79
2022/03/19 05:42:45;;;;;;;147.20;57.90;;;;;;;-3.72;63.37;101041.54;107437;1284;22666;-76
2022/03/19 05:45:14;;;;;;;149.40;56.30;;;;;;;-3.42;63.31;101044.31;107414;1285;24256;-80
2022/03/19 05:47:43;;;;;;;156.10;58.70;;;;;;;-3.11;63.78;101046.73;107435;1284;22785;-74
2022/03/19 05:50:11;;;;;;;141.60;57.70;;;;;;;-2.80;63.76;101047.92;107526;1284;23942;-72
2022/03/19 05:52:38;;;;;;;135.60;56.10;;;;;;;-2.56;63.68;101044.11;107179;1285;24239;-74
2022/03/19 05:55:07;;;;;;;121.90;51.10;;;;;;;-2.32;63.59;101046.80;107486;1284;22720;-74
2022/03/19 05:57:34;;;;;;;131.70;55.50;;;;;;;-2.06;63.23;101047.08;107458;1284;22594;-72
2022/03/19 06:00:02;;;;;;;136.50;55.50;;;;;;;-1.83;62.85;101044.73;107417;1285;22578;-72
2022/03/19 06:02:29;;;;;;;133.70;54.70;;;;;;;-1.61;62.37;101047.10;107413;1284;22705;-77
2022/03/19 06:04:56;;;;;;;135.20;57.30;;;;;;;-1.43;61.27;101048.52;107447;1284;22560;-72
2022/03/19 06:07:23;;;;;;;138.00;58.10;;;;;;;-1.26;59.89;101053.85;107426;1285;22709;-79
2022/03/19 06:09:50;;;;;;;128.80;54.00;;;;;;;-1.12;58.70;101052.27;107442;1284;22621;-72
2022/03/19 06:12:17;;;;;;;140.90;63.80;;;;;;;-1.03;57.63;101057.23;107412;1284;22650;-79
2022/03/19 06:14:44;;;;;;;198.80;90.60;;;;;;;-0.99;56.64;101054.75;107423;1284;26521;-72
2022/03/19 06:17:11;;;;;;;101.40;46.10;;;;;;;-0.98;56.15;101054.42;107441;1284;23094;-77
2022/03/19 06:19:38;;;;;;;100.40;41.10;;;;;;;-1.02;55.31;101054.52;107396;1284;22870;-78
2022/03/19 06:22:05;;;;;;;91.70;40.70;;;;;;;-1.08;54.86;101052.34;107417;1284;22576;-73
2022/03/19 06:24:32;;;;;;;100.20;43.00;;;;;;;-1.12;54.56;101056.52;107386;1284;25432;-75
2022/03/19 06:26:59;;;;;;;94.50;44.60;;;;;;;-1.14;54.31;101052.20;107418;1284;22608;-72
2022/03/19 06:29:26;;;;;;;105.90;44.70;;;;;;;-1.14;54.17;101050.52;107431;1284;22667;-72
2022/03/19 06:31:53;;;;;;;81.20;39.20;;;;;;;-1.11;53.91;101049.52;107470;1284;22722;-78
2022/03/19 06:34:20;;;;;;;81.20;39.40;;;;;;;-1.08;53.54;101052.17;107237;1284;22590;-74
2022/03/19 06:39:33;;;;;;;75.50;36.20;;;;;;;-1.04;52.29;101051.72;107271;1285;22556;-73
2022/03/19 06:42:00;;;;;;;69.40;32.30;;;;;;;-1.02;51.46;101053.65;107255;1285;22738;-72
2022/03/19 06:44:27;;;;;;;85.20;36.60;;;;;;;-0.98;51.49;101049.80;107231;1285;22574;-72
2022/03/19 06:46:54;;;;;;;63.30;28.50;;;;;;;-0.95;50.84;101046.94;107262;1285;22550;-75
2022/03/19 06:49:21;;;;;;;59.10;29.60;;;;;;;-0.92;50.63;101049.91;107285;1285;22698;-82
2022/03/19 06:51:48;;;;;;;93.50;35.60;;;;;;;-0.87;50.41;101051.38;107312;1285;25318;-74
2022/03/19 06:54:15;;;;;;;69.80;30.30;;;;;;;-0.84;50.27;101052.98;107247;1285;22558;-77
2022/03/19 06:56:42;;;;;;;70.70;29.10;;;;;;;-0.83;50.27;101054.38;107274;1285;23028;-74
2022/03/19 06:59:09;;;;;;;61.30;27.80;;;;;;;-0.78;50.43;101052.41;107256;1285;22667;-74
2022/03/19 07:01:36;;;;;;;54.10;25.90;;;;;;;-0.70;50.48;101056.32;107271;1285;22579;-74
2022/03/19 07:04:04;;;;;;;66.30;28.70;;;;;;;-0.60;50.01;101057.88;107270;1285;22561;-79
2022/03/19 07:06:31;;;;;;;81.30;31.50;;;;;;;-0.54;49.76;101055.59;107251;1285;22607;-77
2022/03/19 07:08:58;;;;;;;101.10;43.10;;;;;;;-0.47;49.49;101058.98;107236;1285;22554;-73
2022/03/19 07:11:25;;;;;;;110.10;54.70;;;;;;;-0.40;49.35;101058.08;107283;1285;22703;-77
2022/03/19 07:13:52;;;;;;;138.50;51.00;;;;;;;-0.30;49.13;101056.20;107315;1285;24255;-76
2022/03/19 07:16:19;;;;;;;178.80;58.20;;;;;;;-0.21;48.76;101057.89;107288;1285;22739;-77
2022/03/19 07:18:46;;;;;;;199.20;60.60;;;;;;;-0.13;48.54;101056.83;107493;1285;22586;-74
2022/03/19 07:21:15;;;;;;;166.10;51.30;;;;;;;-0.03;48.30;101059.39;107271;1284;22538;-74
2022/03/19 07:23:43;;;;;;;87.90;37.90;;;;;;;0.05;48.22;101064.64;107283;1284;22737;-77
2022/03/19 07:26:10;;;;;;;69.20;32.30;;;;;;;0.13;47.91;101059.30;107245;1285;22599;-81
2022/03/19 07:28:37;;;;;;;59.60;28.30;;;;;;;0.19;47.82;101059.73;107242;1285;25374;-74
2022/03/19 07:31:04;;;;;;;68.70;28.30;;;;;;;0.30;47.62;101062.14;107218;1285;22617;-72
2022/03/19 07:33:34;;;;;;;67.90;30.60;;;;;;;0.42;46.62;101061.97;107289;1284;22592;-76
2022/03/19 07:36:02;;;;;;;85.90;35.90;;;;;;;0.51;46.83;101061.23;107433;1284;22741;-79
2022/03/19 07:38:33;;;;;;;90.20;35.80;;;;;;;0.59;46.77;101066.84;107417;1285;23048;-74
2022/03/19 07:43:46;;;;;;;84.00;35.40;;;;;;;0.84;46.08;101063.21;107373;1284;22607;-73
2022/03/19 07:46:13;;;;;;;85.10;35.70;;;;;;;0.92;45.63;101060.58;107412;1284;22624;-76
2022/03/19 07:48:40;;;;;;;72.60;32.50;;;;;;;1.04;45.35;101062.09;107407;1284;22582;-72
2022/03/19 07:51:09;;;;;;;149.30;66.70;;;;;;;1.14;45.08;101059.98;107426;1285;22711;-71
2022/03/19 07:53:37;;;;;;;76.10;31.40;;;;;;;1.27;45.00;101054.62;107416;1284;22795;-71
2022/03/19 07:56:04;;;;;;;73.90;31.60;;;;;;;1.38;44.39;101058.02;107419;1284;22602;-72
2022/03/19 07:58:31;;;;;;;73.00;32.80;;;;;;;1.50;44.68;101057.96;107389;1284;22633;-72
2022/03/19 08:00:58;;;;;;;81.90;32.20;;;;;;;1.65;44.65;101051.58;107432;1284;22586;-71
2022/03/19 08:03:25;;;;;;;56.20;24.00;;;;;;;1.81;44.37;101053.79;107469;1284;22600;-73
2022/03/19 08:05:52;;;;;;;64.90;27.30;;;;;;;1.99;43.12;101056.16;107420;1285;22565;-74
2022/03/19 08:08:19;;;;;;;47.70;21.70;;;;;;;2.13;43.03;101055.59;107426;1284;22701;-80
2022/03/19 08:10:46;;;;;;;53.80;27.90;;;;;;;2.32;42.20;101057.27;107432;1284;22620;-73
2022/03/19 08:13:13;;;;;;;36.40;19.60;;;;;;;2.50;41.30;101059.45;107432;1284;22625;-73
2022/03/19 08:15:41;;;;;;;34.20;17.30;;;;;;;2.70;41.36;101050.11;107469;1284;22633;-77
2022/03/19 08:18:10;;;;;;;35.00;15.70;;;;;;;2.91;40.12;101050.19;107420;1284;22696;-76
2022/03/19 08:20:38;;;;;;;46.10;21.60;;;;;;;3.12;38.75;101051.83;107396;1284;23651;-73
2022/03/19 08:23:06;;;;;;;42.20;20.70;;;;;;;3.28;38.20;101047.58;107388;1284;26191;-76
2022/03/19 08:25:33;;;;;;;34.50;20.70;;;;;;;3.40;38.41;101051.56;107427;1284;22555;-71
2022/03/19 08:28:00;;;;;;;25.60;12.40;;;;;;;3.54;37.32;101052.27;107408;1284;22713;-73
2022/03/19 08:30:27;;;;;;;25.50;13.00;;;;;;;3.64;35.92;101046.44;107443;1284;22744;-75
2022/03/19 08:32:54;;;;;;;26.60;16.30;;;;;;;3.71;34.54;101047.30;107401;1285;23613;-74
2022/03/19 08:35:21;;;;;;;41.20;19.70;;;;;;;3.75;35.53;101047.14;107400;1284;22618;-74
2022/03/19 08:37:48;;;;;;;28.80;15.80;;;;;;;3.90;34.56;101047.30;107408;1284;22709;-78
2022/03/19 08:40:15;;;;;;;32.60;17.10;;;;;;;3.96;33.96;101045.07;107398;1284;22634;-74
2022/03/19 08:42:53;;;;;;;28.60;16.20;;;;;;;4.01;33.95;101042.14;107379;1286;22599;-72
2022/03/19 08:45:21;;;;;;;24.10;13.30;;;;;;;4.10;32.97;101045.08;107439;1286;25938;-74
2022/03/19 08:47:49;;;;;;;25.20;14.80;;;;;;;4.14;32.94;101038.85;107436;1285;22763;-77
2022/03/19 08:50:17;;;;;;;26.50;14.40;;;;;;;4.17;33.02;101036.10;107554;1286;24244;-73
2022/03/19 08:52:44;;;;;;;26.10;14.10;;;;;;;4.25;33.44;101034.89;107590;1286;22720;-75
2022/03/19 08:55:12;;;;;;;32.80;15.90;;;;;;;4.35;33.01;101038.83;107460;1285;22539;-85
2022/03/19 08:57:38;;;;;;;30.00;13.50;;;;;;;4.47;31.51;101036.73;107454;1286;22567;-86
2022/03/19 09:00:07;;;;;;;21.40;9.50;;;;;;;4.55;29.94;101033.10;107333;1285;22584;-72
2022/03/19 09:02:35;;;;;;;26.40;12.30;;;;;;;4.60;29.75;101033.24;107377;1287;22685;-76
2022/03/19 09:05:02;;;;;;;21.50;10.90;;;;;;;4.69;29.19;101032.70;107496;1285;22547;-78
2022/03/19 09:07:29;;;;;;;22.80;11.70;;;;;;;4.72;28.95;101026.31;107508;1287;22563;-88
2022/03/19 09:09:56;;;;;;;23.70;12.10;;;;;;;4.78;29.76;101026.11;107638;1286;22596;-92
2022/03/19 09:12:25;;;;;;;23.30;12.10;;;;;;;4.89;29.53;101025.55;107657;1285;22544;-76
2022/03/19 09:14:53;;;;;;;22.20;12.20;;;;;;;4.96;28.80;101032.95;107644;1285;22659;-86
2022/03/19 09:17:20;;;;;;;22.90;12.60;;;;;;;5.01;28.76;101032.23;107635;1284;22595;-74
2022/03/19 09:19:48;;;;;;;24.10;14.70;;;;;;;5.06;28.76;101026.52;107429;1287;22510;-72
2022/03/19 09:22:15;;;;;;;19.20;9.30;;;;;;;5.13;28.88;101028.89;107667;1284;24235;-79
2022/03/19 09:24:42;;;;;;;14.90;7.40;;;;;;;5.20;27.97;101024.36;107709;1285;22763;-76
2022/03/19 09:27:09;;;;;;;17.50;9.90;;;;;;;5.25;26.68;101028.14;107680;1284;22541;-76
2022/03/19 09:29:36;;;;;;;17.80;9.90;;;;;;;5.27;26.77;101030.02;107659;1286;22553;-74
2022/03/19 09:32:04;;;;;;;21.80;11.30;;;;;;;5.34;26.40;101024.98;107689;1284;24218;-93
2022/03/19 09:34:31;;;;;;;26.10;10.90;;;;;;;5.37;26.52;101030.14;107636;1286;24707;-73
2022/03/19 09:36:58;;;;;;;18.60;11.10;;;;;;;5.37;26.67;101031.52;107275;1287;22576;-72
2022/03/19 09:39:25;;;;;;;22.00;11.20;;;;;;;5.42;25.78;101034.08;107277;1284;22565;-72
2022/03/19 09:41:54;;;;;;;16.80;8.40;;;;;;;5.45;25.54;101029.06;107411;1285;22636;-77
2022/03/19 09:44:25;;;;;;;19.90;9.40;;;;;;;5.41;25.79;101027.34;107416;1284;23371;-76
2022/03/19 09:46:53;;;;;;;12.70;7.50;;;;;;;5.41;25.81;101033.40;107420;1285;22549;-77
2022/03/19 09:49:21;;;;;;;17.70;9.50;;;;;;;5.43;26.16;101026.66;107373;1284;22555;-79
2022/03/19 09:51:53;;;;;;;18.90;10.30;;;;;;;5.45;26.08;101032.69;107411;1284;22559;-76
2022/03/19 09:54:23;;;;;;;16.70;9.30;;;;;;;5.49;26.31;101029.54;107431;1284;24318;-75
2022/03/19 09:56:51;;;;;;;17.40;10.00;;;;;;;5.49;26.43;101023.14;107422;1284;22710;-81
2022/03/19 09:59:18;;;;;;;14.90;8.20;;;;;;;5.54;26.33;101023.63;107566;1284;24566;-78
2022/03/19 10:01:46;;;;;;;22.20;8.50;;;;;;;5.58;26.18;101026.38;107511;1284;22560;-77
2022/03/19 10:04:17;;;;;;;19.80;12.20;;;;;;;5.68;25.38;101026.66;107415;1284;22569;-79
2022/03/19 10:09:46;;;;;;;17.10;8.60;;;;;;;5.80;25.13;101027.42;107247;1286;25438;-73
2022/03/19 10:12:18;;;;;;;15.60;8.50;;;;;;;5.85;25.10;101025.13;107164;1287;22601;-75
2022/03/19 10:14:53;;;;;;;16.70;8.30;;;;;;;5.87;25.75;101021.34;107270;1285;22780;-73
2022/03/19 10:17:31;;;;;;;14.90;8.00;;;;;;;5.97;25.44;101023.68;107273;1287;22751;-72
2022/03/19 10:20:05;;;;;;;17.90;8.70;;;;;;;6.01;25.45;101026.05;107271;1286;22604;-71
2022/03/19 10:22:34;;;;;;;20.20;12.30;;;;;;;6.08;25.13;101021.85;107435;1284;22707;-73
2022/03/19 10:25:10;;;;;;;16.30;8.00;;;;;;;6.10;25.14;101023.91;107137;1287;22595;-74
2022/03/19 10:27:41;;;;;;;23.70;13.60;;;;;;;6.22;25.58;101019.12;107380;1285;22582;-75
2022/03/19 10:30:19;;;;;;;25.50;14.00;;;;;;;6.27;25.42;101022.37;107294;1286;23084;-75
2022/03/19 10:32:52;;;;;;;19.70;10.50;;;;;;;6.25;25.37;101023.27;107269;1285;22586;-78
2022/03/19 10:35:31;;;;;;;18.20;10.30;;;;;;;6.28;24.79;101022.35;107567;1287;22585;-75
2022/03/19 10:38:00;;;;;;;22.30;13.00;;;;;;;6.28;24.76;101024.26;107290;1286;23289;-73
2022/03/19 10:40:42;;;;;;;20.00;8.90;;;;;;;6.38;24.25;101026.08;107516;1286;22590;-74
2022/03/19 10:43:11;;;;;;;23.60;13.40;;;;;;;6.38;23.66;101016.89;107270;1286;24240;-73
2022/03/19 10:45:49;;;;;;;17.60;8.90;;;;;;;6.40;24.08;101019.64;107295;1285;22600;-74
2022/03/19 10:48:24;;;;;;;20.80;10.40;;;;;;;6.46;23.86;101019.05;107276;1285;24435;-74
2022/03/19 10:50:52;;;;;;;21.70;11.00;;;;;;;6.48;24.09;101023.02;107545;1285;25422;-73
2022/03/19 10:53:20;;;;;;;21.90;9.80;;;;;;;6.52;24.27;101019.87;107528;1285;22563;-84
2022/03/19 10:55:47;;;;;;;21.70;12.30;;;;;;;6.57;24.57;101018.60;107511;1285;22584;-79
2022/03/19 10:58:15;;;;;;;20.10;10.90;;;;;;;6.64;24.66;101015.22;107510;1285;22652;-86
2022/03/19 11:00:48;;;;;;;18.00;8.10;;;;;;;6.73;24.13;101018.05;107491;1285;22555;-73
2022/03/19 11:03:20;;;;;;;22.80;13.40;;;;;;;6.72;23.76;101014.96;107518;1286;22557;-71
2022/03/19 11:05:52;;;;;;;20.30;10.30;;;;;;;6.70;23.93;101014.64;107520;1285;22577;-74
2022/03/19 11:08:22;;;;;;;23.30;10.60;;;;;;;6.71;24.51;101013.23;107290;1287;22665;-72
2022/03/19 11:10:51;;;;;;;15.00;8.60;;;;;;;6.82;24.53;101017.77;107523;1285;24242;-71
2022/03/19 11:13:24;;;;;;;17.50;10.80;;;;;;;6.91;23.36;101015.75;107513;1287;22645;-79
2022/03/19 11:15:55;;;;;;;14.70;8.30;;;;;;;6.93;23.38;101014.17;107513;1285;22873;-71
2022/03/19 11:18:23;;;;;;;19.90;9.50;;;;;;;6.93;23.71;101012.63;107545;1285;24236;-77
2022/03/19 11:20:50;;;;;;;18.00;9.80;;;;;;;6.95;24.16;101007.05;107535;1285;25333;-71